sensor_id;sensor_type;location;lat;lon;timestamp;temperature;humidity
11922;DHT22;6021;51.182;3.160;2023-03-01T00:01:28;-0.30;99.90
11922;DHT22;6021;51.182;3.160;2023-03-01T00:03:57;-0.30;99.90
11922;DHT22;6021;51.182;3.160;2023-03-01T00:06:26;-0.30;99.90
11922;DHT22;6021;51.182;3.160;2023-03-01T00:08:55;-0.30;99.90
11922;DHT22;6021;51.182;3.160;2023-03-01T00:11:29;-0.40;99.90
11922;DHT22;6021;51.182;3.160;2023-03-01T00:13:59;-0.40;99.90
11922;DHT22;6021;51.182;3.160;2023-03-01T00:16:35;-0.60;99.90
11922;DHT22;6021;51.182;3.160;2023-03-01T00:19:00;-0.50;99.90
11922;DHT22;6021;51.182;3.160;2023-03-01T00:21:29;-0.40;99.90
11922;DHT22;6021;51.182;3.160;2023-03-01T00:23:58;-0.30;99.90
11922;DHT22;6021;51.182;3.160;2023-03-01T00:26:26;-0.30;99.90
11922;DHT22;6021;51.182;3.160;2023-03-01T00:28:56;-0.40;99.90
11922;DHT22;6021;51.182;3.160;2023-03-01T00:31:27;-0.40;99.90
11922;DHT22;6021;51.182;3.160;2023-03-01T00:33:59;-0.10;99.90
11922;DHT22;6021;51.182;3.160;2023-03-01T00:36:29;-0.20;99.90
11922;DHT22;6021;51.182;3.160;2023-03-01T00:38:58;-0.20;99.90
11922;DHT22;6021;51.182;3.160;2023-03-01T00:41:27;-0.50;99.90
11922;DHT22;6021;51.182;3.160;2023-03-01T00:43:56;-0.40;99.90
11922;DHT22;6021;51.182;3.160;2023-03-01T00:46:26;-0.60;99.90
11922;DHT22;6021;51.182;3.160;2023-03-01T00:48:56;-0.30;99.90
11922;DHT22;6021;51.182;3.160;2023-03-01T00:51:27;-0.40;99.90
11922;DHT22;6021;51.182;3.160;2023-03-01T00:53:59;-0.30;99.90
11922;DHT22;6021;51.182;3.160;2023-03-01T00:56:27;-0.30;99.90
11922;DHT22;6021;51.182;3.160;2023-03-01T00:58:55;-0.40;99.90
11922;DHT22;6021;51.182;3.160;2023-03-01T01:01:26;-0.10;99.90
11922;DHT22;6021;51.182;3.160;2023-03-01T01:04:01;-0.20;99.90
11922;DHT22;6021;51.182;3.160;2023-03-01T01:06:33;-0.20;99.90
11922;DHT22;6021;51.182;3.160;2023-03-01T01:09:02;-0.40;99.90
11922;DHT22;6021;51.182;3.160;2023-03-01T01:11:31;-0.50;99.90
11922;DHT22;6021;51.182;3.160;2023-03-01T01:14:00;-0.50;99.90
11922;DHT22;6021;51.182;3.160;2023-03-01T01:16:29;-0.40;99.90
11922;DHT22;6021;51.182;3.160;2023-03-01T01:18:58;-0.40;99.90
11922;DHT22;6021;51.182;3.160;2023-03-01T01:21:26;-0.30;99.90
11922;DHT22;6021;51.182;3.160;2023-03-01T01:23:55;-0.40;99.90
11922;DHT22;6021;51.182;3.160;2023-03-01T01:26:26;-0.30;99.90
11922;DHT22;6021;51.182;3.160;2023-03-01T01:28:55;-0.50;99.90
11922;DHT22;6021;51.182;3.160;2023-03-01T01:31:24;-0.60;99.90
11922;DHT22;6021;51.182;3.160;2023-03-01T01:33:54;-0.60;99.90
11922;DHT22;6021;51.182;3.160;2023-03-01T01:36:23;-0.30;99.90
11922;DHT22;6021;51.182;3.160;2023-03-01T01:38:51;-0.30;99.90
11922;DHT22;6021;51.182;3.160;2023-03-01T01:41:20;-0.30;99.90
11922;DHT22;6021;51.182;3.160;2023-03-01T01:44:09;-0.30;99.90
11922;DHT22;6021;51.182;3.160;2023-03-01T01:46:24;-0.30;99.90
11922;DHT22;6021;51.182;3.160;2023-03-01T01:49:03;-0.40;99.90
11922;DHT22;6021;51.182;3.160;2023-03-01T01:51:37;-0.50;99.90
11922;DHT22;6021;51.182;3.160;2023-03-01T01:54:12;-0.50;99.90
11922;DHT22;6021;51.182;3.160;2023-03-01T01:56:43;-0.50;99.90
11922;DHT22;6021;51.182;3.160;2023-03-01T01:59:12;-0.40;99.90
11922;DHT22;6021;51.182;3.160;2023-03-01T02:01:40;-0.40;99.90
11922;DHT22;6021;51.182;3.160;2023-03-01T02:04:09;-0.60;99.90
11922;DHT22;6021;51.182;3.160;2023-03-01T02:06:44;-0.60;99.90
11922;DHT22;6021;51.182;3.160;2023-03-01T02:09:14;-0.50;99.90
11922;DHT22;6021;51.182;3.160;2023-03-01T02:11:44;-0.60;99.90
11922;DHT22;6021;51.182;3.160;2023-03-01T02:14:12;-0.30;99.90
11922;DHT22;6021;51.182;3.160;2023-03-01T02:16:41;-0.50;99.90
11922;DHT22;6021;51.182;3.160;2023-03-01T02:19:13;-0.60;99.90
11922;DHT22;6021;51.182;3.160;2023-03-01T02:21:52;-0.60;99.90
11922;DHT22;6021;51.182;3.160;2023-03-01T02:24:22;-0.60;99.90
11922;DHT22;6021;51.182;3.160;2023-03-01T02:26:56;-0.40;99.90
11922;DHT22;6021;51.182;3.160;2023-03-01T02:29:22;-0.70;99.90
11922;DHT22;6021;51.182;3.160;2023-03-01T02:31:52;-0.30;99.90
11922;DHT22;6021;51.182;3.160;2023-03-01T02:34:24;-0.40;99.90
11922;DHT22;6021;51.182;3.160;2023-03-01T02:39:47;-0.50;99.90
11922;DHT22;6021;51.182;3.160;2023-03-01T02:42:16;-0.50;99.90
11922;DHT22;6021;51.182;3.160;2023-03-01T02:44:45;-0.60;99.90
11922;DHT22;6021;51.182;3.160;2023-03-01T02:47:13;-0.50;99.90
11922;DHT22;6021;51.182;3.160;2023-03-01T02:49:41;-0.70;99.90
11922;DHT22;6021;51.182;3.160;2023-03-01T02:55:13;-0.50;99.90
11922;DHT22;6021;51.182;3.160;2023-03-01T02:57:44;-0.40;99.90
11922;DHT22;6021;51.182;3.160;2023-03-01T03:00:20;-0.40;99.90
11922;DHT22;6021;51.182;3.160;2023-03-01T03:02:47;-0.60;99.90
11922;DHT22;6021;51.182;3.160;2023-03-01T03:05:18;-0.60;99.90
11922;DHT22;6021;51.182;3.160;2023-03-01T03:07:48;-0.70;99.90
11922;DHT22;6021;51.182;3.160;2023-03-01T03:10:22;-0.60;99.90
11922;DHT22;6021;51.182;3.160;2023-03-01T03:12:54;-0.50;99.90
11922;DHT22;6021;51.182;3.160;2023-03-01T03:15:23;-0.60;99.90
11922;DHT22;6021;51.182;3.160;2023-03-01T03:17:53;-0.50;99.90
11922;DHT22;6021;51.182;3.160;2023-03-01T03:20:24;-0.60;99.90
11922;DHT22;6021;51.182;3.160;2023-03-01T03:22:54;-0.70;99.90
11922;DHT22;6021;51.182;3.160;2023-03-01T03:25:23;-0.60;99.90
11922;DHT22;6021;51.182;3.160;2023-03-01T03:27:53;-0.50;99.90
11922;DHT22;6021;51.182;3.160;2023-03-01T03:30:26;-0.70;99.90
11922;DHT22;6021;51.182;3.160;2023-03-01T03:32:55;-0.50;99.90
11922;DHT22;6021;51.182;3.160;2023-03-01T03:35:27;-0.60;99.90
11922;DHT22;6021;51.182;3.160;2023-03-01T03:37:59;-0.70;99.90
11922;DHT22;6021;51.182;3.160;2023-03-01T03:40:34;-0.80;99.90
11922;DHT22;6021;51.182;3.160;2023-03-01T03:43:03;-0.90;99.90
11922;DHT22;6021;51.182;3.160;2023-03-01T03:45:32;-0.70;99.90
11922;DHT22;6021;51.182;3.160;2023-03-01T03:48:02;-0.70;99.90
11922;DHT22;6021;51.182;3.160;2023-03-01T03:50:31;-0.60;99.90
11922;DHT22;6021;51.182;3.160;2023-03-01T03:53:04;-0.70;99.90
11922;DHT22;6021;51.182;3.160;2023-03-01T03:55:33;-0.70;99.90
11922;DHT22;6021;51.182;3.160;2023-03-01T03:58:02;-0.60;99.90
11922;DHT22;6021;51.182;3.160;2023-03-01T04:00:35;-0.80;99.90
11922;DHT22;6021;51.182;3.160;2023-03-01T04:03:03;-0.70;99.90
11922;DHT22;6021;51.182;3.160;2023-03-01T04:05:32;-0.80;99.90
11922;DHT22;6021;51.182;3.160;2023-03-01T04:08:01;-0.80;99.90
11922;DHT22;6021;51.182;3.160;2023-03-01T04:10:32;-0.80;99.90
11922;DHT22;6021;51.182;3.160;2023-03-01T04:13:00;-0.90;99.90
11922;DHT22;6021;51.182;3.160;2023-03-01T04:15:29;-0.90;99.90
11922;DHT22;6021;51.182;3.160;2023-03-01T04:17:59;-0.70;99.90
11922;DHT22;6021;51.182;3.160;2023-03-01T04:20:29;-0.70;99.90
11922;DHT22;6021;51.182;3.160;2023-03-01T04:23:07;-0.70;99.90
11922;DHT22;6021;51.182;3.160;2023-03-01T04:25:42;-0.60;99.90
11922;DHT22;6021;51.182;3.160;2023-03-01T04:28:11;-1.00;99.90
11922;DHT22;6021;51.182;3.160;2023-03-01T04:30:39;-0.70;99.90
11922;DHT22;6021;51.182;3.160;2023-03-01T04:33:10;-0.50;99.90
11922;DHT22;6021;51.182;3.160;2023-03-01T04:35:39;-0.60;99.90
11922;DHT22;6021;51.182;3.160;2023-03-01T04:38:07;-0.90;99.90
11922;DHT22;6021;51.182;3.160;2023-03-01T04:40:36;-0.80;99.90
11922;DHT22;6021;51.182;3.160;2023-03-01T04:43:05;-0.90;99.90
11922;DHT22;6021;51.182;3.160;2023-03-01T04:45:33;-0.60;99.90
11922;DHT22;6021;51.182;3.160;2023-03-01T04:48:02;-0.70;99.90
11922;DHT22;6021;51.182;3.160;2023-03-01T04:50:31;-0.80;99.90
11922;DHT22;6021;51.182;3.160;2023-03-01T04:52:59;-0.60;99.90
11922;DHT22;6021;51.182;3.160;2023-03-01T04:55:29;-1.00;99.90
11922;DHT22;6021;51.182;3.160;2023-03-01T04:57:58;-0.60;99.90
11922;DHT22;6021;51.182;3.160;2023-03-01T05:00:27;-0.80;99.90
11922;DHT22;6021;51.182;3.160;2023-03-01T05:02:57;-0.70;99.90
11922;DHT22;6021;51.182;3.160;2023-03-01T05:05:36;-0.70;99.90
11922;DHT22;6021;51.182;3.160;2023-03-01T05:08:03;-1.00;99.90
11922;DHT22;6021;51.182;3.160;2023-03-01T05:10:33;-0.70;99.90
11922;DHT22;6021;51.182;3.160;2023-03-01T05:13:03;-0.70;99.90
11922;DHT22;6021;51.182;3.160;2023-03-01T05:15:31;-0.70;99.90
11922;DHT22;6021;51.182;3.160;2023-03-01T05:18:00;-1.10;99.90
11922;DHT22;6021;51.182;3.160;2023-03-01T05:20:29;-0.80;99.90
11922;DHT22;6021;51.182;3.160;2023-03-01T05:22:59;-1.00;99.90
11922;DHT22;6021;51.182;3.160;2023-03-01T05:25:29;-0.80;99.90
11922;DHT22;6021;51.182;3.160;2023-03-01T05:28:01;-1.00;99.90
11922;DHT22;6021;51.182;3.160;2023-03-01T05:30:34;-0.80;99.90
11922;DHT22;6021;51.182;3.160;2023-03-01T05:33:03;-1.10;99.90
11922;DHT22;6021;51.182;3.160;2023-03-01T05:35:33;-1.00;99.90
11922;DHT22;6021;51.182;3.160;2023-03-01T05:38:01;-1.10;99.90
11922;DHT22;6021;51.182;3.160;2023-03-01T05:40:30;-1.00;99.90
11922;DHT22;6021;51.182;3.160;2023-03-01T05:42:58;-0.90;99.90
11922;DHT22;6021;51.182;3.160;2023-03-01T05:45:27;-0.80;99.90
11922;DHT22;6021;51.182;3.160;2023-03-01T05:47:56;-1.00;99.90
11922;DHT22;6021;51.182;3.160;2023-03-01T05:50:27;-1.10;99.90
11922;DHT22;6021;51.182;3.160;2023-03-01T05:53:00;-1.00;99.90
11922;DHT22;6021;51.182;3.160;2023-03-01T05:55:31;-1.10;99.90
11922;DHT22;6021;51.182;3.160;2023-03-01T05:58:15;-1.10;99.90
11922;DHT22;6021;51.182;3.160;2023-03-01T06:00:45;-1.00;99.90
11922;DHT22;6021;51.182;3.160;2023-03-01T06:03:15;-1.20;99.90
11922;DHT22;6021;51.182;3.160;2023-03-01T06:05:44;-1.00;99.90
11922;DHT22;6021;51.182;3.160;2023-03-01T06:08:13;-1.30;99.90
11922;DHT22;6021;51.182;3.160;2023-03-01T06:10:42;-1.20;99.90
11922;DHT22;6021;51.182;3.160;2023-03-01T06:13:10;-1.30;99.90
11922;DHT22;6021;51.182;3.160;2023-03-01T06:15:38;-1.10;99.90
11922;DHT22;6021;51.182;3.160;2023-03-01T06:18:07;-1.00;99.90
11922;DHT22;6021;51.182;3.160;2023-03-01T06:20:35;-1.10;99.90
11922;DHT22;6021;51.182;3.160;2023-03-01T06:23:03;-1.00;99.90
11922;DHT22;6021;51.182;3.160;2023-03-01T06:25:32;-1.00;99.90
11922;DHT22;6021;51.182;3.160;2023-03-01T06:28:00;-1.10;99.90
11922;DHT22;6021;51.182;3.160;2023-03-01T06:30:28;-1.10;99.90
11922;DHT22;6021;51.182;3.160;2023-03-01T06:32:57;-1.00;99.90
11922;DHT22;6021;51.182;3.160;2023-03-01T06:35:27;-1.30;99.90
11922;DHT22;6021;51.182;3.160;2023-03-01T06:38:00;-1.10;99.90
11922;DHT22;6021;51.182;3.160;2023-03-01T06:40:29;-1.10;99.90
11922;DHT22;6021;51.182;3.160;2023-03-01T06:42:58;-1.10;99.90
11922;DHT22;6021;51.182;3.160;2023-03-01T06:45:27;-1.10;99.90
11922;DHT22;6021;51.182;3.160;2023-03-01T06:48:07;-1.10;99.90
11922;DHT22;6021;51.182;3.160;2023-03-01T06:50:33;-1.00;99.90
11922;DHT22;6021;51.182;3.160;2023-03-01T06:53:02;-1.30;99.90
11922;DHT22;6021;51.182;3.160;2023-03-01T06:55:31;-1.30;99.90
11922;DHT22;6021;51.182;3.160;2023-03-01T06:58:01;-1.20;99.90
11922;DHT22;6021;51.182;3.160;2023-03-01T07:00:30;-1.30;99.90
11922;DHT22;6021;51.182;3.160;2023-03-01T07:03:00;-1.20;99.90
11922;DHT22;6021;51.182;3.160;2023-03-01T07:05:30;-1.10;99.90
11922;DHT22;6021;51.182;3.160;2023-03-01T07:07:59;-1.10;99.90
11922;DHT22;6021;51.182;3.160;2023-03-01T07:10:27;-1.00;99.90
11922;DHT22;6021;51.182;3.160;2023-03-01T07:12:57;-0.80;99.90
11922;DHT22;6021;51.182;3.160;2023-03-01T07:15:26;-0.90;99.90
11922;DHT22;6021;51.182;3.160;2023-03-01T07:17:56;-0.80;99.90
11922;DHT22;6021;51.182;3.160;2023-03-01T07:20:25;-1.00;99.90
11922;DHT22;6021;51.182;3.160;2023-03-01T07:22:54;-1.00;99.90
11922;DHT22;6021;51.182;3.160;2023-03-01T07:25:25;-0.60;99.90
11922;DHT22;6021;51.182;3.160;2023-03-01T07:27:53;-0.60;99.90
11922;DHT22;6021;51.182;3.160;2023-03-01T07:30:22;-0.60;99.90
11922;DHT22;6021;51.182;3.160;2023-03-01T07:32:52;-0.70;99.90
11922;DHT22;6021;51.182;3.160;2023-03-01T07:35:21;-0.60;99.90
11922;DHT22;6021;51.182;3.160;2023-03-01T07:37:50;-0.50;99.90
11922;DHT22;6021;51.182;3.160;2023-03-01T07:40:18;-0.40;99.90
11922;DHT22;6021;51.182;3.160;2023-03-01T07:42:47;-0.30;99.90
11922;DHT22;6021;51.182;3.160;2023-03-01T07:45:15;0.20;99.90
11922;DHT22;6021;51.182;3.160;2023-03-01T07:47:43;0.00;99.90
11922;DHT22;6021;51.182;3.160;2023-03-01T07:50:11;0.00;99.90
11922;DHT22;6021;51.182;3.160;2023-03-01T07:52:40;0.30;99.90
11922;DHT22;6021;51.182;3.160;2023-03-01T07:55:09;0.30;99.90
11922;DHT22;6021;51.182;3.160;2023-03-01T07:57:37;-0.10;99.90
11922;DHT22;6021;51.182;3.160;2023-03-01T08:00:06;0.10;99.90
11922;DHT22;6021;51.182;3.160;2023-03-01T08:02:35;0.50;99.90
11922;DHT22;6021;51.182;3.160;2023-03-01T08:05:04;0.50;99.90
11922;DHT22;6021;51.182;3.160;2023-03-01T08:07:33;0.50;99.90
11922;DHT22;6021;51.182;3.160;2023-03-01T08:10:01;0.60;99.90
11922;DHT22;6021;51.182;3.160;2023-03-01T08:12:30;0.70;99.90
11922;DHT22;6021;51.182;3.160;2023-03-01T08:14:58;1.00;99.90
11922;DHT22;6021;51.182;3.160;2023-03-01T08:17:26;1.50;99.90
11922;DHT22;6021;51.182;3.160;2023-03-01T08:19:55;2.10;99.90
11922;DHT22;6021;51.182;3.160;2023-03-01T08:22:23;2.40;66.60
11922;DHT22;6021;51.182;3.160;2023-03-01T08:24:52;2.30;98.20
11922;DHT22;6021;51.182;3.160;2023-03-01T08:27:22;2.50;64.10
11922;DHT22;6021;51.182;3.160;2023-03-01T08:29:50;3.00;45.40
11922;DHT22;6021;51.182;3.160;2023-03-01T08:32:18;3.00;6.80
11922;DHT22;6021;51.182;3.160;2023-03-01T08:34:47;3.00;1.00
11922;DHT22;6021;51.182;3.160;2023-03-01T08:37:15;3.10;1.00
11922;DHT22;6021;51.182;3.160;2023-03-01T08:39:44;2.90;1.00
11922;DHT22;6021;51.182;3.160;2023-03-01T08:42:14;3.00;1.00
11922;DHT22;6021;51.182;3.160;2023-03-01T08:44:42;3.00;1.00
11922;DHT22;6021;51.182;3.160;2023-03-01T08:47:10;3.20;1.00
11922;DHT22;6021;51.182;3.160;2023-03-01T08:49:39;3.40;1.00
11922;DHT22;6021;51.182;3.160;2023-03-01T08:52:07;3.70;1.00
11922;DHT22;6021;51.182;3.160;2023-03-01T08:54:36;3.40;1.00
11922;DHT22;6021;51.182;3.160;2023-03-01T08:57:05;3.50;1.00
11922;DHT22;6021;51.182;3.160;2023-03-01T08:59:33;3.40;1.00
11922;DHT22;6021;51.182;3.160;2023-03-01T09:02:04;3.70;1.00
11922;DHT22;6021;51.182;3.160;2023-03-01T09:04:34;3.90;1.00
11922;DHT22;6021;51.182;3.160;2023-03-01T09:07:02;3.80;1.00
11922;DHT22;6021;51.182;3.160;2023-03-01T09:09:30;3.70;1.00
11922;DHT22;6021;51.182;3.160;2023-03-01T09:11:59;3.90;1.00
11922;DHT22;6021;51.182;3.160;2023-03-01T09:14:27;3.70;1.00
11922;DHT22;6021;51.182;3.160;2023-03-01T09:16:56;3.40;1.00
11922;DHT22;6021;51.182;3.160;2023-03-01T09:19:24;3.70;1.00
11922;DHT22;6021;51.182;3.160;2023-03-01T09:21:53;3.70;1.00
11922;DHT22;6021;51.182;3.160;2023-03-01T09:24:23;3.90;1.00
11922;DHT22;6021;51.182;3.160;2023-03-01T09:26:56;3.90;1.00
11922;DHT22;6021;51.182;3.160;2023-03-01T09:29:24;4.20;1.00
11922;DHT22;6021;51.182;3.160;2023-03-01T09:31:53;4.00;1.00
11922;DHT22;6021;51.182;3.160;2023-03-01T09:34:24;4.00;1.00
11922;DHT22;6021;51.182;3.160;2023-03-01T09:36:53;4.20;1.00
11922;DHT22;6021;51.182;3.160;2023-03-01T09:39:22;4.30;1.00
11922;DHT22;6021;51.182;3.160;2023-03-01T09:42:04;4.50;1.00
11922;DHT22;6021;51.182;3.160;2023-03-01T09:44:54;5.10;1.00
11922;DHT22;6021;51.182;3.160;2023-03-01T09:47:24;5.20;1.00
11922;DHT22;6021;51.182;3.160;2023-03-01T09:50:09;5.80;1.00
11922;DHT22;6021;51.182;3.160;2023-03-01T09:52:46;5.70;1.00
11922;DHT22;6021;51.182;3.160;2023-03-01T09:55:26;5.70;1.00
11922;DHT22;6021;51.182;3.160;2023-03-01T09:58:00;5.60;1.00
11922;DHT22;6021;51.182;3.160;2023-03-01T10:00:42;5.90;1.00
11922;DHT22;6021;51.182;3.160;2023-03-01T10:05:54;6.60;1.00
11922;DHT22;6021;51.182;3.160;2023-03-01T10:11:26;6.40;1.00
11922;DHT22;6021;51.182;3.160;2023-03-01T10:14:17;6.50;1.00
11922;DHT22;6021;51.182;3.160;2023-03-01T10:16:57;7.00;1.00
11922;DHT22;6021;51.182;3.160;2023-03-01T10:19:49;7.10;1.00
11922;DHT22;6021;51.182;3.160;2023-03-01T10:22:04;7.00;1.00
11922;DHT22;6021;51.182;3.160;2023-03-01T10:24:32;6.90;1.00
11922;DHT22;6021;51.182;3.160;2023-03-01T10:27:49;7.00;1.00
11922;DHT22;6021;51.182;3.160;2023-03-01T10:29:47;7.10;1.00
11922;DHT22;6021;51.182;3.160;2023-03-01T10:32:10;6.90;1.00
11922;DHT22;6021;51.182;3.160;2023-03-01T10:34:41;6.50;1.00
11922;DHT22;6021;51.182;3.160;2023-03-01T10:37:12;6.50;1.00
11922;DHT22;6021;51.182;3.160;2023-03-01T10:40:09;7.20;1.00
11922;DHT22;6021;51.182;3.160;2023-03-01T10:42:50;7.60;1.00
11922;DHT22;6021;51.182;3.160;2023-03-01T10:50:23;8.20;1.00
11922;DHT22;6021;51.182;3.160;2023-03-01T10:53:03;8.00;1.00
11922;DHT22;6021;51.182;3.160;2023-03-01T10:55:36;8.50;1.00
11922;DHT22;6021;51.182;3.160;2023-03-01T10:58:17;8.50;1.00
11922;DHT22;6021;51.182;3.160;2023-03-01T11:01:01;8.20;1.00
11922;DHT22;6021;51.182;3.160;2023-03-01T11:03:37;7.70;1.00
11922;DHT22;6021;51.182;3.160;2023-03-01T11:09:18;7.10;1.00
11922;DHT22;6021;51.182;3.160;2023-03-01T11:11:46;7.30;1.00
11922;DHT22;6021;51.182;3.160;2023-03-01T11:14:20;7.60;1.00
11922;DHT22;6021;51.182;3.160;2023-03-01T11:17:02;7.20;1.00
11922;DHT22;6021;51.182;3.160;2023-03-01T11:19:34;7.30;1.00
11922;DHT22;6021;51.182;3.160;2023-03-01T11:24:52;7.50;1.00
11922;DHT22;6021;51.182;3.160;2023-03-01T11:27:21;8.20;1.00
11922;DHT22;6021;51.182;3.160;2023-03-01T11:30:18;7.90;1.00
11922;DHT22;6021;51.182;3.160;2023-03-01T11:32:27;7.90;1.00
11922;DHT22;6021;51.182;3.160;2023-03-01T11:35:21;7.50;1.00
11922;DHT22;6021;51.182;3.160;2023-03-01T11:40:42;7.10;1.00
11922;DHT22;6021;51.182;3.160;2023-03-01T11:43:35;7.20;1.00
11922;DHT22;6021;51.182;3.160;2023-03-01T11:54:18;7.00;1.00
11922;DHT22;6021;51.182;3.160;2023-03-01T11:56:57;6.80;1.00
11922;DHT22;6021;51.182;3.160;2023-03-01T12:20:15;7.90;1.00
11922;DHT22;6021;51.182;3.160;2023-03-01T12:25:51;7.20;1.00
11922;DHT22;6021;51.182;3.160;2023-03-01T12:28:40;7.10;1.00
11922;DHT22;6021;51.182;3.160;2023-03-01T12:35:06;7.10;1.00
11922;DHT22;6021;51.182;3.160;2023-03-01T12:46:09;6.80;1.00
11922;DHT22;6021;51.182;3.160;2023-03-01T12:48:59;7.30;1.00
11922;DHT22;6021;51.182;3.160;2023-03-01T12:51:28;7.10;1.00
11922;DHT22;6021;51.182;3.160;2023-03-01T12:54:01;7.10;1.00
11922;DHT22;6021;51.182;3.160;2023-03-01T12:56:36;7.00;1.00
11922;DHT22;6021;51.182;3.160;2023-03-01T12:59:15;6.90;1.00
11922;DHT22;6021;51.182;3.160;2023-03-01T13:02:04;6.80;1.00
11922;DHT22;6021;51.182;3.160;2023-03-01T13:15:43;7.40;1.00
11922;DHT22;6021;51.182;3.160;2023-03-01T13:20:56;7.80;1.00
11922;DHT22;6021;51.182;3.160;2023-03-01T13:23:29;7.90;1.00
11922;DHT22;6021;51.182;3.160;2023-03-01T13:28:49;8.20;1.00
11922;DHT22;6021;51.182;3.160;2023-03-01T13:33:58;8.00;1.00
11922;DHT22;6021;51.182;3.160;2023-03-01T13:41:57;7.50;1.00
11922;DHT22;6021;51.182;3.160;2023-03-01T13:44:36;7.40;1.00
11922;DHT22;6021;51.182;3.160;2023-03-01T13:52:42;7.30;1.00
11922;DHT22;6021;51.182;3.160;2023-03-01T13:55:26;6.80;1.00
11922;DHT22;6021;51.182;3.160;2023-03-01T13:57:58;6.90;1.00
11922;DHT22;6021;51.182;3.160;2023-03-01T14:03:22;6.90;1.00
11922;DHT22;6021;51.182;3.160;2023-03-01T14:06:14;6.80;1.00
11922;DHT22;6021;51.182;3.160;2023-03-01T14:08:48;6.80;1.00
11922;DHT22;6021;51.182;3.160;2023-03-01T14:11:56;6.70;1.00
11922;DHT22;6021;51.182;3.160;2023-03-01T14:19:37;6.70;1.00
11922;DHT22;6021;51.182;3.160;2023-03-01T14:22:20;7.00;1.00
11922;DHT22;6021;51.182;3.160;2023-03-01T14:25:24;6.80;1.00
11922;DHT22;6021;51.182;3.160;2023-03-01T14:28:24;6.60;1.00
11922;DHT22;6021;51.182;3.160;2023-03-01T14:30:59;6.60;1.00
11922;DHT22;6021;51.182;3.160;2023-03-01T14:33:36;6.70;1.00
11922;DHT22;6021;51.182;3.160;2023-03-01T14:36:10;7.00;1.00
11922;DHT22;6021;51.182;3.160;2023-03-01T14:38:57;6.70;1.00
11922;DHT22;6021;51.182;3.160;2023-03-01T14:41:28;6.70;1.00
11922;DHT22;6021;51.182;3.160;2023-03-01T14:44:00;6.70;1.00
11922;DHT22;6021;51.182;3.160;2023-03-01T14:46:37;6.80;1.00
11922;DHT22;6021;51.182;3.160;2023-03-01T14:49:18;6.80;1.00
11922;DHT22;6021;51.182;3.160;2023-03-01T14:51:55;7.00;1.00
11922;DHT22;6021;51.182;3.160;2023-03-01T14:54:35;6.70;1.00
11922;DHT22;6021;51.182;3.160;2023-03-01T14:57:01;6.80;1.00
11922;DHT22;6021;51.182;3.160;2023-03-01T15:02:39;6.70;1.00
11922;DHT22;6021;51.182;3.160;2023-03-01T15:05:10;7.00;1.00
11922;DHT22;6021;51.182;3.160;2023-03-01T15:07:40;6.50;1.00
11922;DHT22;6021;51.182;3.160;2023-03-01T15:10:22;6.70;1.00
11922;DHT22;6021;51.182;3.160;2023-03-01T15:12:53;6.60;1.00
11922;DHT22;6021;51.182;3.160;2023-03-01T15:15:36;6.50;1.00
11922;DHT22;6021;51.182;3.160;2023-03-01T15:18:17;6.60;1.00
11922;DHT22;6021;51.182;3.160;2023-03-01T15:20:48;6.60;1.00
11922;DHT22;6021;51.182;3.160;2023-03-01T15:23:23;6.50;1.00
11922;DHT22;6021;51.182;3.160;2023-03-01T15:25:53;6.50;1.00
11922;DHT22;6021;51.182;3.160;2023-03-01T15:28:31;6.50;1.00
11922;DHT22;6021;51.182;3.160;2023-03-01T15:31:12;6.40;1.00
11922;DHT22;6021;51.182;3.160;2023-03-01T15:33:36;6.50;1.00
11922;DHT22;6021;51.182;3.160;2023-03-01T15:36:42;6.30;1.00
11922;DHT22;6021;51.182;3.160;2023-03-01T15:39:30;6.40;1.00
11922;DHT22;6021;51.182;3.160;2023-03-01T15:41:48;6.50;1.00
11922;DHT22;6021;51.182;3.160;2023-03-01T15:44:25;6.40;1.00
11922;DHT22;6021;51.182;3.160;2023-03-01T15:46:54;6.50;1.00
11922;DHT22;6021;51.182;3.160;2023-03-01T15:49:41;6.50;1.00
11922;DHT22;6021;51.182;3.160;2023-03-01T15:52:27;6.40;1.00
11922;DHT22;6021;51.182;3.160;2023-03-01T15:55:04;6.30;1.00
11922;DHT22;6021;51.182;3.160;2023-03-01T15:57:35;6.30;1.00
11922;DHT22;6021;51.182;3.160;2023-03-01T16:00:13;6.30;1.00
11922;DHT22;6021;51.182;3.160;2023-03-01T16:02:43;6.20;1.00
11922;DHT22;6021;51.182;3.160;2023-03-01T16:05:17;6.20;1.00
11922;DHT22;6021;51.182;3.160;2023-03-01T16:07:46;6.20;1.00
11922;DHT22;6021;51.182;3.160;2023-03-01T16:10:15;6.10;1.00
11922;DHT22;6021;51.182;3.160;2023-03-01T16:12:44;6.00;1.00
11922;DHT22;6021;51.182;3.160;2023-03-01T16:15:20;6.10;1.00
11922;DHT22;6021;51.182;3.160;2023-03-01T16:17:51;6.00;1.00
11922;DHT22;6021;51.182;3.160;2023-03-01T16:20:22;6.00;1.00
11922;DHT22;6021;51.182;3.160;2023-03-01T16:22:51;5.90;1.00
11922;DHT22;6021;51.182;3.160;2023-03-01T16:25:20;5.90;1.00
11922;DHT22;6021;51.182;3.160;2023-03-01T16:27:50;6.00;1.00
11922;DHT22;6021;51.182;3.160;2023-03-01T16:30:20;5.90;1.00
11922;DHT22;6021;51.182;3.160;2023-03-01T16:32:50;6.00;1.00
11922;DHT22;6021;51.182;3.160;2023-03-01T16:35:20;5.80;1.00
11922;DHT22;6021;51.182;3.160;2023-03-01T16:37:49;5.90;1.00
11922;DHT22;6021;51.182;3.160;2023-03-01T16:40:25;5.70;1.00
11922;DHT22;6021;51.182;3.160;2023-03-01T16:42:55;5.80;1.00
11922;DHT22;6021;51.182;3.160;2023-03-01T16:45:28;5.70;1.00
11922;DHT22;6021;51.182;3.160;2023-03-01T16:47:56;5.80;1.00
11922;DHT22;6021;51.182;3.160;2023-03-01T16:50:26;5.70;1.00
11922;DHT22;6021;51.182;3.160;2023-03-01T16:52:56;5.60;1.00
11922;DHT22;6021;51.182;3.160;2023-03-01T16:55:24;5.50;1.00
11922;DHT22;6021;51.182;3.160;2023-03-01T16:57:52;5.50;1.00
11922;DHT22;6021;51.182;3.160;2023-03-01T17:00:22;5.40;1.00
11922;DHT22;6021;51.182;3.160;2023-03-01T17:02:51;5.40;1.00
11922;DHT22;6021;51.182;3.160;2023-03-01T17:05:19;5.40;1.00
11922;DHT22;6021;51.182;3.160;2023-03-01T17:07:50;5.40;1.00
11922;DHT22;6021;51.182;3.160;2023-03-01T17:10:20;5.30;1.00
11922;DHT22;6021;51.182;3.160;2023-03-01T17:12:50;5.20;1.00
11922;DHT22;6021;51.182;3.160;2023-03-01T17:15:20;5.10;1.00
11922;DHT22;6021;51.182;3.160;2023-03-01T17:17:49;5.10;1.00
11922;DHT22;6021;51.182;3.160;2023-03-01T17:20:19;5.20;1.00
11922;DHT22;6021;51.182;3.160;2023-03-01T17:22:48;5.10;1.00
11922;DHT22;6021;51.182;3.160;2023-03-01T17:25:16;5.00;1.00
11922;DHT22;6021;51.182;3.160;2023-03-01T17:27:44;5.10;1.00
11922;DHT22;6021;51.182;3.160;2023-03-01T17:30:14;4.90;1.00
11922;DHT22;6021;51.182;3.160;2023-03-01T17:32:43;4.60;1.00
11922;DHT22;6021;51.182;3.160;2023-03-01T17:35:11;4.70;1.00
11922;DHT22;6021;51.182;3.160;2023-03-01T17:37:40;4.80;1.00
11922;DHT22;6021;51.182;3.160;2023-03-01T17:40:10;4.70;1.00
11922;DHT22;6021;51.182;3.160;2023-03-01T17:42:39;4.80;1.00
11922;DHT22;6021;51.182;3.160;2023-03-01T17:45:07;4.40;1.00
11922;DHT22;6021;51.182;3.160;2023-03-01T17:47:36;4.50;1.00
11922;DHT22;6021;51.182;3.160;2023-03-01T17:50:05;4.10;1.00
11922;DHT22;6021;51.182;3.160;2023-03-01T17:52:34;4.10;1.00
11922;DHT22;6021;51.182;3.160;2023-03-01T17:55:03;4.10;1.00
11922;DHT22;6021;51.182;3.160;2023-03-01T17:57:31;4.10;1.00
11922;DHT22;6021;51.182;3.160;2023-03-01T18:00:00;4.20;1.00
11922;DHT22;6021;51.182;3.160;2023-03-01T18:02:28;4.20;1.00
11922;DHT22;6021;51.182;3.160;2023-03-01T18:04:57;4.20;1.00
11922;DHT22;6021;51.182;3.160;2023-03-01T18:07:27;4.00;1.00
11922;DHT22;6021;51.182;3.160;2023-03-01T18:09:56;4.00;1.00
11922;DHT22;6021;51.182;3.160;2023-03-01T18:12:24;3.90;1.00
11922;DHT22;6021;51.182;3.160;2023-03-01T18:14:52;3.80;1.00
11922;DHT22;6021;51.182;3.160;2023-03-01T18:17:22;3.50;1.00
11922;DHT22;6021;51.182;3.160;2023-03-01T18:19:50;3.40;1.00
11922;DHT22;6021;51.182;3.160;2023-03-01T18:22:19;3.40;1.00